Allendale, California
Current Conditions -  °F | °C
As of 4:53 AM on Saturday 25 Oct 2014 (Local Time) from KVCB Reporting Station
Broken Clouds Broken Clouds  
Wind Chill: 17°   Ceiling: 4200
Heat Index: 17°   Visibility: 10mi
Dew Point: 11°   Wind: 7mph
Humidity: 67%   Direction: 140°SE
Pressure: 29.89"   Gusts: NA
Location:  38.4195°N, 122.026°W
Report Text: KVCB 251153Z AUTO 14006KT 10SM SCT033 BKN042 17/11 A2989 RMK AO2 SLP122 T01720111 10178 20161 56008 TSNO
Loading
Personal Weather Stations






























Interactive Weather Map
Tropical Storm Tracking
New forecast layout! Learn more

10-Day Weather Forecast

Advertisements
Track Severe Weather on mobile